Time;durP1;ratioP1;P1;durP2;ratioP2;P2;SDS_P1;SDS_P2;PMS_P1;PMS_P2;Temp;Humidity;BMP_temperature;BMP_pressure;BME280_temperature;BME280_humidity;BME280_pressure;Samples;Min_cycle;Max_cycle;Signal;HPM_P1;HPM_P2
2023/12/15 00:01:56;;;;;;;9.05;4.10;;;9.10;99.90;;;8.48;100.00;102808.56;4152394;28;20371;-72
2023/12/15 00:03:56;;;;;;;13.75;4.28;;;9.10;99.90;;;8.45;100.00;102806.94;4151130;28;20033;-72
2023/12/15 00:06:01;;;;;;;7.35;3.42;;;9.00;99.90;;;8.35;100.00;102797.91;4152471;28;20072;-72
2023/12/15 00:08:03;;;;;;;11.18;3.95;;;9.00;99.90;;;8.29;100.00;102799.13;4151179;28;20049;-72
2023/12/15 00:10:04;;;;;;;6.50;3.90;;;8.90;99.90;;;8.24;100.00;102803.75;4152397;28;20401;-72
2023/12/15 00:12:05;;;;;;;7.90;3.35;;;8.90;99.90;;;8.15;100.00;102798.22;4151053;28;20034;-72
2023/12/15 00:14:06;;;;;;;8.95;4.05;;;8.80;99.90;;;8.07;100.00;102795.16;4151049;28;20425;-72
2023/12/15 00:16:08;;;;;;;9.23;3.75;;;8.70;99.90;;;8.06;100.00;102796.13;4150904;28;20054;-72
2023/12/15 00:18:08;;;;;;;10.52;3.67;;;8.70;99.90;;;7.99;100.00;102798.25;4152573;28;20079;-72
2023/12/15 00:20:10;;;;;;;13.95;4.63;;;8.60;99.90;;;7.96;100.00;102795.81;4152242;28;20405;-72
2023/12/15 00:22:11;;;;;;;8.35;3.65;;;8.60;99.90;;;7.94;100.00;102808.19;4134958;28;20502;-72
2023/12/15 00:24:11;;;;;;;6.28;3.55;;;8.60;99.90;;;7.89;100.00;102809.38;4167250;28;20068;-72
2023/12/15 00:26:12;;;;;;;9.07;3.83;;;8.60;99.90;;;7.82;100.00;102809.72;4152365;28;20054;-72
2023/12/15 00:28:13;;;;;;;14.35;4.25;;;8.50;99.90;;;7.93;100.00;102806.50;4150860;28;20037;-72
2023/12/15 00:30:14;;;;;;;8.80;4.35;;;8.60;99.90;;;7.97;100.00;102818.53;4152177;28;20144;-72
2023/12/15 00:32:15;;;;;;;9.90;4.38;;;8.60;99.90;;;7.94;100.00;102813.47;4150672;28;20402;-72
2023/12/15 00:34:16;;;;;;;10.38;3.78;;;8.60;99.90;;;7.92;100.00;102807.44;4183780;28;20087;-72
2023/12/15 00:36:16;;;;;;;7.40;3.40;;;8.60;99.90;;;7.90;100.00;102813.72;4151998;28;20025;-72
2023/12/15 00:38:17;;;;;;;11.93;4.57;;;8.50;99.90;;;7.91;100.00;102810.16;4152067;28;20037;-72
2023/12/15 00:40:18;;;;;;;7.95;3.97;;;8.50;99.90;;;7.88;100.00;102802.44;4151882;28;20038;-72
2023/12/15 00:42:19;;;;;;;7.03;4.60;;;8.50;99.90;;;7.82;100.00;102804.47;4151759;28;20048;-72
2023/12/15 00:44:20;;;;;;;10.20;3.70;;;8.50;99.90;;;7.78;100.00;102797.72;4150758;28;20038;-72
2023/12/15 00:46:21;;;;;;;8.15;3.70;;;8.40;99.90;;;7.84;100.00;102807.03;4150843;28;20026;-72
2023/12/15 00:48:22;;;;;;;12.35;4.50;;;8.50;99.90;;;7.80;100.00;102802.88;4152029;28;20019;-72
2023/12/15 00:50:23;;;;;;;11.32;3.63;;;8.40;99.90;;;7.72;100.00;102802.47;4151108;28;20033;-72
2023/12/15 00:52:24;;;;;;;11.48;4.03;;;8.40;99.90;;;7.68;100.00;102798.31;4151881;28;20022;-72
2023/12/15 00:54:25;;;;;;;6.18;3.30;;;8.40;99.90;;;7.65;100.00;102803.75;4152012;28;20037;-72
2023/12/15 00:56:25;;;;;;;9.23;3.45;;;8.30;99.90;;;7.59;100.00;102797.06;4151803;28;20033;-72
2023/12/15 00:58:26;;;;;;;11.38;4.07;;;8.30;99.90;;;7.61;100.00;102808.34;4151769;28;20041;-72
2023/12/15 01:00:27;;;;;;;8.18;3.10;;;8.20;99.90;;;7.58;100.00;102798.00;4150758;28;20077;-72
2023/12/15 01:02:28;;;;;;;17.95;3.63;;;8.20;99.90;;;7.52;100.00;102787.84;4151863;28;20448;-72
2023/12/15 01:04:29;;;;;;;9.50;3.28;;;8.20;99.90;;;7.48;100.00;102786.31;4152486;28;20632;-72
2023/12/15 01:06:30;;;;;;;15.02;4.22;;;8.10;99.90;;;7.43;100.00;102791.00;4140569;28;20101;-72
2023/12/15 01:08:31;;;;;;;11.38;3.80;;;8.00;99.90;;;7.39;100.00;102781.59;4153585;28;20018;-72
2023/12/15 01:10:32;;;;;;;8.77;3.65;;;8.00;99.90;;;7.37;100.00;102795.75;4169869;28;20124;-72
2023/12/15 01:12:33;;;;;;;10.88;3.88;;;7.90;99.90;;;7.34;100.00;102783.63;4154543;28;20033;-72
2023/12/15 01:14:34;;;;;;;6.40;2.92;;;7.90;99.90;;;7.30;100.00;102791.75;4153392;28;20033;-72
2023/12/15 01:16:35;;;;;;;6.63;3.28;;;7.90;99.90;;;7.25;100.00;102789.38;4153478;28;20049;-72
2023/12/15 01:18:35;;;;;;;9.98;3.70;;;7.80;99.90;;;7.16;100.00;102789.91;4153483;28;20540;-72
2023/12/15 01:20:36;;;;;;;8.60;3.63;;;7.80;99.90;;;7.08;100.00;102792.91;4186292;28;20029;-72
2023/12/15 01:22:38;;;;;;;10.63;3.90;;;7.70;99.90;;;7.08;100.00;102798.16;4153340;28;20619;-72
2023/12/15 01:24:39;;;;;;;10.52;3.40;;;7.70;99.90;;;7.14;100.00;102804.84;4169702;28;20029;-72
2023/12/15 01:26:40;;;;;;;11.35;3.20;;;7.70;99.90;;;7.17;100.00;102812.56;4154651;28;20025;-72
2023/12/15 01:28:41;;;;;;;11.05;3.55;;;7.70;99.90;;;7.17;100.00;102804.69;4154269;28;20026;-72
2023/12/15 01:30:42;;;;;;;11.25;5.53;;;7.70;99.90;;;7.15;100.00;102806.56;4154198;28;20026;-72
2023/12/15 01:32:43;;;;;;;18.45;10.88;;;7.70;99.90;;;7.08;100.00;102805.19;4154707;28;20047;-72
2023/12/15 01:34:44;;;;;;;13.40;7.43;;;7.60;99.90;;;7.01;100.00;102812.56;4153172;28;20034;-72
2023/12/15 01:36:45;;;;;;;11.55;6.07;;;7.60;99.90;;;6.96;100.00;102809.31;4154210;28;20060;-72
2023/12/15 01:38:46;;;;;;;11.32;5.25;;;7.50;99.90;;;6.88;100.00;102808.91;4168409;28;20111;-72
2023/12/15 01:40:47;;;;;;;10.88;6.40;;;7.50;99.90;;;6.86;100.00;102812.53;4152317;28;20069;-72
2023/12/15 01:42:47;;;;;;;13.32;5.00;;;7.40;99.90;;;6.78;100.00;102812.94;4181187;28;20025;-72
2023/12/15 01:44:48;;;;;;;10.27;4.40;;;7.40;99.90;;;6.77;100.00;102810.41;4148474;28;20057;-72
2023/12/15 01:46:49;;;;;;;15.23;4.10;;;7.40;99.90;;;6.68;100.00;102812.59;4154036;28;20029;-72
2023/12/15 01:48:51;;;;;;;12.38;4.35;;;7.30;99.90;;;6.63;100.00;102811.97;4169515;28;20025;-72
2023/12/15 01:50:52;;;;;;;9.98;4.68;;;7.30;99.90;;;6.62;100.00;102831.25;4154209;28;20104;-72
2023/12/15 01:52:53;;;;;;;10.35;5.00;;;7.20;99.90;;;6.55;100.00;102835.13;4152800;28;20092;-72
2023/12/15 01:54:54;;;;;;;14.40;7.65;;;7.20;99.90;;;6.50;100.00;102826.66;4152695;28;20022;-72
2023/12/15 01:56:55;;;;;;;11.25;7.07;;;7.20;99.90;;;6.37;100.00;102816.84;4154061;28;20030;-72
2023/12/15 01:58:55;;;;;;;15.23;6.32;;;7.10;99.90;;;6.41;100.00;102832.38;4152910;28;20026;-72
2023/12/15 02:00:56;;;;;;;9.73;5.13;;;7.10;99.90;;;6.38;100.00;102843.00;4154129;28;20030;-72
2023/12/15 02:02:57;;;;;;;10.55;4.80;;;7.00;99.90;;;6.29;100.00;102838.22;4153818;28;20029;-72
2023/12/15 02:04:58;;;;;;;19.48;5.22;;;7.00;99.90;;;6.23;100.00;102822.81;4154020;28;20044;-72
2023/12/15 02:06:59;;;;;;;18.13;6.47;;;7.00;99.90;;;6.25;100.00;102833.19;4169048;28;20029;-72
2023/12/15 02:09:00;;;;;;;15.63;6.95;;;6.90;99.90;;;6.18;100.00;102835.31;4152628;28;20403;-72
2023/12/15 02:11:00;;;;;;;14.70;7.32;;;6.80;99.90;;;6.10;100.00;102847.91;4152548;28;20037;-72
2023/12/15 02:13:01;;;;;;;18.55;8.57;;;6.80;99.90;;;6.04;100.00;102842.97;4185251;28;20480;-72
2023/12/15 02:15:02;;;;;;;20.55;7.95;;;6.70;99.90;;;6.00;100.00;102846.69;4152799;28;20036;-72
2023/12/15 02:17:03;;;;;;;13.20;6.25;;;6.70;99.90;;;5.99;100.00;102848.47;4184347;28;20047;-72
2023/12/15 02:19:04;;;;;;;11.57;5.35;;;6.60;99.90;;;5.99;100.00;102852.84;4169036;28;20041;-72
2023/12/15 02:21:05;;;;;;;16.10;5.70;;;6.60;99.90;;;5.96;100.00;102856.47;4153704;28;20029;-72
2023/12/15 02:23:06;;;;;;;10.20;5.35;;;6.60;99.90;;;5.93;100.00;102850.53;4136142;28;20459;-72
2023/12/15 02:25:07;;;;;;;12.45;5.45;;;6.60;99.90;;;6.01;100.00;102845.75;4185355;28;20029;-72
2023/12/15 02:27:08;;;;;;;12.57;5.05;;;6.60;99.90;;;6.07;100.00;102853.31;4152360;28;20022;-72
2023/12/15 02:29:09;;;;;;;13.55;5.00;;;6.60;99.90;;;6.10;100.00;102856.63;4153727;28;20022;-72
2023/12/15 02:31:10;;;;;;;15.30;6.07;;;6.70;99.90;;;6.10;100.00;102859.25;4136156;28;20035;-72
2023/12/15 02:33:11;;;;;;;15.02;5.20;;;6.70;99.90;;;6.18;100.00;102864.13;4185163;28;20033;-72
2023/12/15 02:35:14;;;;;;;15.70;4.90;;;6.70;99.90;;;6.17;100.00;102861.56;4152209;28;20025;-72
2023/12/15 02:37:14;;;;;;;16.15;4.45;;;6.80;99.90;;;6.26;100.00;102867.22;4153323;28;20025;-72
2023/12/15 02:39:15;;;;;;;11.95;4.85;;;6.80;99.90;;;6.31;100.00;102877.44;4152341;28;20520;-72
2023/12/15 02:41:16;;;;;;;13.60;5.28;;;6.80;99.90;;;6.38;100.00;102874.47;4153298;28;20030;-72
2023/12/15 02:43:17;;;;;;;11.95;3.47;;;6.90;99.90;;;6.37;100.00;102872.75;4153042;28;20029;-72
2023/12/15 02:45:18;;;;;;;12.25;3.03;;;7.00;99.90;;;6.38;100.00;102874.47;4153179;28;20030;-72
2023/12/15 02:47:19;;;;;;;15.45;3.80;;;7.00;99.90;;;6.38;100.00;102869.22;4152275;28;20038;-72
2023/12/15 02:49:20;;;;;;;11.55;3.53;;;7.00;99.90;;;6.35;100.00;102872.00;4152188;28;20033;-72
2023/12/15 02:51:29;;;;;;;13.90;3.97;;;7.00;99.90;;;6.31;100.00;102866.97;4151707;28;20224;-72
2023/12/15 02:53:30;;;;;;;15.13;4.72;;;6.90;99.90;;;6.29;100.00;102874.91;4152116;28;20113;-72
2023/12/15 02:55:31;;;;;;;9.70;4.22;;;6.90;99.90;;;6.27;100.00;102875.91;4143067;28;20029;-72
2023/12/15 02:57:33;;;;;;;11.52;4.55;;;6.90;99.90;;;6.31;100.00;102878.31;4151841;28;20076;-72
2023/12/15 02:59:34;;;;;;;11.68;4.00;;;6.90;99.90;;;6.32;100.00;102884.41;4153120;28;20025;-72
2023/12/15 03:01:35;;;;;;;13.27;3.55;;;6.90;99.90;;;6.42;100.00;102881.22;4135418;28;20077;-72
2023/12/15 03:03:36;;;;;;;12.90;4.13;;;7.00;99.90;;;6.61;100.00;102891.63;4153165;28;20029;-72
2023/12/15 03:05:37;;;;;;;18.60;4.13;;;7.20;99.90;;;6.71;100.00;102881.53;4151429;28;20073;-72
2023/12/15 03:07:38;;;;;;;16.70;3.33;;;7.30;99.90;;;6.80;100.00;102886.31;4151796;28;20034;-72
2023/12/15 03:09:38;;;;;;;19.88;5.90;;;7.40;99.90;;;6.83;100.00;102886.16;4148789;28;20093;-72
2023/12/15 03:11:39;;;;;;;14.57;3.33;;;7.40;99.90;;;6.86;100.00;102892.09;4151905;28;20025;-72
2023/12/15 03:13:40;;;;;;;13.85;2.97;;;7.40;99.90;;;6.93;100.00;102903.94;4151525;28;20660;-72
2023/12/15 03:15:42;;;;;;;17.27;2.80;;;7.50;99.90;;;6.99;100.00;102905.41;4151882;28;20033;-72
2023/12/15 03:17:43;;;;;;;10.70;3.03;;;7.50;99.90;;;7.08;100.00;102904.91;4152540;28;20057;-72
2023/12/15 03:19:44;;;;;;;16.70;4.07;;;7.60;99.90;;;7.06;100.00;102889.25;4151607;28;20453;-72
2023/12/15 03:21:44;;;;;;;12.77;3.83;;;7.60;99.90;;;7.18;100.00;102896.47;4151562;28;20080;-72
2023/12/15 03:23:45;;;;;;;12.32;2.28;;;7.70;99.90;;;7.17;100.00;102899.19;4151485;28;20033;-72
2023/12/15 03:25:46;;;;;;;10.65;2.58;;;7.70;99.90;;;7.20;100.00;102902.50;4151592;28;20431;-72
2023/12/15 03:27:47;;;;;;;13.45;3.05;;;7.80;99.90;;;7.22;100.00;102905.91;4151301;28;20026;-72
2023/12/15 03:29:49;;;;;;;14.07;3.03;;;7.80;99.90;;;7.19;100.00;102905.22;4152570;28;20026;-72
2023/12/15 03:31:50;;;;;;;11.63;2.97;;;7.70;99.90;;;7.18;100.00;102914.00;4151540;28;20420;-72
2023/12/15 03:33:51;;;;;;;14.25;3.75;;;7.70;99.90;;;7.12;100.00;102916.94;4152686;28;20030;-72
2023/12/15 03:35:52;;;;;;;18.17;3.92;;;7.70;99.90;;;6.96;100.00;102902.97;4152701;28;20033;-72
2023/12/15 03:37:53;;;;;;;16.10;3.00;;;7.60;99.90;;;7.01;100.00;102911.44;4152598;28;20504;-72
2023/12/15 03:39:54;;;;;;;22.88;4.13;;;7.70;99.90;;;7.01;100.00;102911.44;4152698;28;20033;-72
2023/12/15 03:41:54;;;;;;;20.05;3.70;;;7.60;99.90;;;7.00;100.00;102926.31;4152205;28;20030;-72
2023/12/15 03:43:56;;;;;;;21.67;3.20;;;7.60;99.90;;;6.95;100.00;102919.63;4152676;28;20370;-72
2023/12/15 03:45:57;;;;;;;20.38;3.17;;;7.60;99.90;;;6.94;100.00;102926.63;4151339;28;20093;-72
2023/12/15 03:47:58;;;;;;;14.27;3.03;;;7.60;99.90;;;6.86;100.00;102928.81;4152448;28;20083;-72
2023/12/15 03:49:59;;;;;;;21.02;3.30;;;7.50;99.90;;;6.86;100.00;102923.56;4183885;28;20035;-72
2023/12/15 03:51:59;;;;;;;13.13;2.63;;;7.50;99.90;;;6.75;100.00;102907.50;4152364;28;20014;-72
2023/12/15 03:54:00;;;;;;;16.00;2.88;;;7.50;99.90;;;6.79;100.00;102916.06;4151034;28;20034;-72
2023/12/15 03:56:01;;;;;;;19.10;2.88;;;7.50;99.90;;;6.77;100.00;102928.44;4151329;28;20060;-72
2023/12/15 03:58:02;;;;;;;10.98;3.00;;;7.40;99.90;;;6.72;100.00;102936.50;4183912;28;20025;-72
2023/12/15 04:00:04;;;;;;;16.95;2.50;;;7.40;99.90;;;6.69;100.00;102934.91;4135091;28;20061;-72
2023/12/15 04:02:05;;;;;;;16.65;3.65;;;7.30;99.90;;;6.74;100.00;102942.56;4152338;28;20022;-72
2023/12/15 04:04:06;;;;;;;17.63;3.40;;;7.40;99.90;;;6.74;100.00;102941.69;4151053;28;20113;-72
2023/12/15 04:06:08;;;;;;;22.23;3.20;;;7.40;99.90;;;6.71;100.00;102950.56;4152291;28;20397;-72
2023/12/15 04:08:09;;;;;;;12.63;3.08;;;7.40;99.90;;;6.72;100.00;102943.56;4139231;28;20026;-72
2023/12/15 04:10:10;;;;;;;11.45;4.57;;;7.30;99.90;;;6.75;100.00;102946.84;4151089;28;20037;-72
2023/12/15 04:12:11;;;;;;;20.17;3.22;;;7.40;99.90;;;6.81;100.00;102951.78;4134532;28;20482;-71
2023/12/15 04:14:12;;;;;;;14.32;3.42;;;7.40;99.90;;;6.87;100.00;102950.66;4152226;28;20030;-72
2023/12/15 04:16:13;;;;;;;13.73;3.00;;;7.50;99.90;;;6.97;100.00;102959.72;4134698;28;20042;-72
2023/12/15 04:18:14;;;;;;;12.65;2.92;;;7.50;99.90;;;7.01;100.00;102959.50;4152309;28;20490;-72
2023/12/15 04:20:15;;;;;;;16.92;3.50;;;7.60;99.90;;;7.08;100.00;102960.03;4144242;28;20038;-72
2023/12/15 04:22:16;;;;;;;11.70;3.38;;;7.60;99.90;;;7.12;100.00;102974.69;4148021;28;20025;-72
2023/12/15 04:24:17;;;;;;;18.30;3.40;;;7.70;99.90;;;7.15;100.00;102971.91;4151969;28;20022;-72
2023/12/15 04:26:18;;;;;;;15.15;3.15;;;7.70;99.90;;;7.21;100.00;102976.84;4151246;28;20030;-72
2023/12/15 04:28:19;;;;;;;12.73;2.58;;;7.80;99.90;;;7.26;100.00;102974.81;4151974;28;20041;-72
2023/12/15 04:30:20;;;;;;;13.32;2.60;;;7.90;99.90;;;7.30;100.00;102981.63;4150891;28;20026;-72
2023/12/15 04:32:20;;;;;;;18.23;4.50;;;7.90;99.90;;;7.36;100.00;102990.94;4150700;28;20034;-72
2023/12/15 04:34:21;;;;;;;12.25;3.97;;;7.90;99.90;;;7.35;100.00;102989.25;4152301;28;20018;-72
2023/12/15 04:36:22;;;;;;;30.92;4.72;;;7.90;99.90;;;7.42;100.00;102996.72;4150735;28;20033;-72
2023/12/15 04:38:23;;;;;;;11.57;2.88;;;8.00;99.90;;;7.47;100.00;102997.31;4151823;28;20397;-72
2023/12/15 04:40:24;;;;;;;14.30;3.25;;;8.00;99.90;;;7.47;100.00;102999.94;4154292;28;20026;-72
2023/12/15 04:42:25;;;;;;;15.23;2.50;;;8.10;99.90;;;7.50;100.00;102991.91;4153968;28;20025;-72
2023/12/15 04:44:25;;;;;;;18.08;3.00;;;8.10;99.90;;;7.53;100.00;103004.03;4154150;28;20026;-72
2023/12/15 04:46:29;;;;;;;13.27;3.28;;;8.10;99.90;;;7.51;100.00;103004.13;4154035;28;20026;-72
2023/12/15 04:48:32;;;;;;;19.80;3.55;;;8.10;99.90;;;7.53;100.00;103004.88;4170299;28;20022;-72
2023/12/15 04:50:32;;;;;;;16.73;2.90;;;8.20;99.90;;;7.52;100.00;103005.81;4150689;28;20026;-72
2023/12/15 04:52:33;;;;;;;14.27;2.65;;;8.20;99.90;;;7.59;100.00;103001.06;4137621;28;20026;-72
2023/12/15 04:54:34;;;;;;;16.85;2.85;;;8.20;99.90;;;7.57;100.00;103001.16;4155019;28;20512;-72
2023/12/15 04:56:35;;;;;;;25.73;4.25;;;8.20;99.90;;;7.60;100.00;103011.50;4153700;28;20405;-72
2023/12/15 04:58:39;;;;;;;17.27;3.70;;;8.20;99.90;;;7.64;100.00;103020.94;4153708;28;20053;-72
2023/12/15 05:00:40;;;;;;;24.10;3.80;;;8.20;99.90;;;7.65;100.00;103024.38;4141181;28;20030;-72
2023/12/15 05:02:41;;;;;;;21.63;4.03;;;8.30;99.90;;;7.67;100.00;103020.78;4150419;28;20030;-72
2023/12/15 05:04:42;;;;;;;13.48;2.33;;;8.30;99.90;;;7.73;100.00;103019.59;4150391;28;20051;-72
2023/12/15 05:06:42;;;;;;;17.65;3.90;;;8.30;99.90;;;7.76;100.00;103014.19;4186598;28;20033;-72
2023/12/15 05:08:44;;;;;;;15.27;3.25;;;8.40;99.90;;;7.80;100.00;103020.94;4153684;28;20026;-72
2023/12/15 05:10:45;;;;;;;13.48;3.40;;;8.40;99.90;;;7.82;100.00;103026.13;4143603;28;20028;-72
2023/12/15 05:12:45;;;;;;;8.65;2.58;;;8.40;99.90;;;7.81;100.00;103030.53;4184034;28;20500;-72
2023/12/15 05:14:46;;;;;;;8.80;2.25;;;8.40;99.90;;;7.81;100.00;103033.16;4153519;28;20026;-72
2023/12/15 05:16:47;;;;;;;12.10;2.80;;;8.40;99.90;;;7.81;100.00;103030.53;4153352;28;20521;-72
2023/12/15 05:18:48;;;;;;;12.80;3.25;;;8.50;99.90;;;7.82;100.00;103021.72;4154671;28;20026;-72
2023/12/15 05:20:49;;;;;;;16.02;3.38;;;8.50;99.90;;;7.77;100.00;103013.22;4154415;28;20030;-72
2023/12/15 05:22:49;;;;;;;11.33;2.57;;;8.50;99.90;;;7.87;100.00;103029.34;4153573;28;20022;-72
2023/12/15 05:24:53;;;;;;;14.35;3.05;;;8.50;99.90;;;7.84;100.00;103024.25;4186179;28;20029;-72
2023/12/15 05:26:54;;;;;;;14.05;3.83;;;8.50;99.90;;;7.85;100.00;103037.31;4154315;28;20397;-72
2023/12/15 05:28:56;;;;;;;15.90;3.22;;;8.50;99.90;;;7.89;100.00;103036.22;4153227;28;20038;-72
2023/12/15 05:30:57;;;;;;;10.98;2.35;;;8.50;99.90;;;7.90;100.00;103043.16;4154263;28;20034;-72
2023/12/15 05:32:58;;;;;;;16.92;3.38;;;8.60;99.90;;;7.92;100.00;103040.44;4154607;28;20444;-72
2023/12/15 05:34:59;;;;;;;16.30;3.15;;;8.60;99.90;;;7.93;100.00;103050.03;4154618;28;20026;-72
2023/12/15 05:37:00;;;;;;;13.88;2.83;;;8.60;99.90;;;7.90;100.00;103047.56;4152847;28;20025;-72
2023/12/15 05:39:01;;;;;;;10.85;2.50;;;8.60;99.90;;;7.94;100.00;103054.38;4152666;28;20099;-72
2023/12/15 05:41:02;;;;;;;9.77;2.80;;;8.60;99.90;;;7.93;100.00;103050.03;4169272;28;20443;-72
2023/12/15 05:43:03;;;;;;;8.65;1.77;;;8.60;99.90;;;7.90;100.00;103047.56;4152842;28;20603;-72
2023/12/15 05:45:05;;;;;;;14.50;2.45;;;8.60;99.90;;;7.92;100.00;103050.97;4169355;28;20107;-72
2023/12/15 05:47:06;;;;;;;10.55;2.67;;;8.60;99.90;;;7.94;100.00;103046.50;4169419;28;20028;-72
2023/12/15 05:49:07;;;;;;;9.77;3.00;;;8.60;99.90;;;7.89;100.00;103046.72;4186057;28;20025;-72
2023/12/15 05:51:08;;;;;;;9.68;2.05;;;8.60;99.90;;;7.92;100.00;103051.81;4154200;28;20029;-72
2023/12/15 05:53:09;;;;;;;12.20;2.85;;;8.60;99.90;;;7.91;100.00;103041.41;4168539;28;20033;-72
2023/12/15 05:55:10;;;;;;;7.93;2.10;;;8.60;99.90;;;7.91;100.00;103057.16;4152880;28;20084;-72
2023/12/15 05:57:11;;;;;;;18.70;2.47;;;8.60;99.90;;;7.91;100.00;103063.28;4153885;28;20455;-72
2023/12/15 05:59:11;;;;;;;14.00;2.63;;;8.60;99.90;;;7.91;100.00;103055.38;4152836;28;20035;-72
2023/12/15 06:01:12;;;;;;;11.43;3.00;;;8.60;99.90;;;7.90;100.00;103061.56;4152952;28;20529;-72
2023/12/15 06:03:14;;;;;;;13.00;2.33;;;8.60;99.90;;;7.87;100.00;103055.63;4140838;28;20025;-72
2023/12/15 06:05:15;;;;;;;10.80;2.03;;;8.60;99.90;;;7.90;100.00;103066.81;4153101;28;20065;-72
2023/12/15 06:07:16;;;;;;;12.30;3.50;;;8.60;99.90;;;7.90;100.00;103068.59;4153372;28;20022;-72
2023/12/15 06:09:17;;;;;;;15.63;2.90;;;8.60;99.90;;;7.88;100.00;103073.94;4152860;28;20033;-72
2023/12/15 06:11:19;;;;;;;9.43;2.10;;;8.60;99.90;;;7.91;100.00;103083.44;4141505;28;20019;-72
2023/12/15 06:13:19;;;;;;;18.42;2.70;;;8.60;99.90;;;7.90;100.00;103090.47;4168755;28;20033;-72
2023/12/15 06:15:20;;;;;;;8.63;1.83;;;8.60;99.90;;;7.87;100.00;103087.16;4152553;28;20072;-72
2023/12/15 06:17:21;;;;;;;13.23;3.05;;;8.50;99.90;;;7.84;100.00;103087.31;4136115;28;20050;-72
2023/12/15 06:19:23;;;;;;;14.65;2.85;;;8.50;99.90;;;7.74;100.00;103085.16;4136203;28;20410;-72
2023/12/15 06:21:26;;;;;;;15.65;3.35;;;8.50;99.90;;;7.81;100.00;103098.84;4148785;28;20687;-72
2023/12/15 06:23:27;;;;;;;16.05;3.97;;;8.50;99.90;;;7.76;100.00;103091.19;4152638;28;20497;-72
2023/12/15 06:25:28;;;;;;;14.93;3.55;;;8.50;99.90;;;7.77;100.00;103089.41;4185205;28;20025;-72
2023/12/15 06:27:31;;;;;;;15.50;4.43;;;8.50;99.90;;;7.86;100.00;103112.56;4153188;28;20041;-72
2023/12/15 06:29:32;;;;;;;11.07;2.75;;;8.50;99.90;;;7.80;100.00;103110.28;4153744;28;20095;-72
2023/12/15 06:31:33;;;;;;;18.23;2.60;;;8.50;99.90;;;7.88;100.00;103115.13;4151833;28;20125;-72
2023/12/15 06:33:34;;;;;;;12.73;3.30;;;8.60;99.90;;;7.88;100.00;103116.00;4153156;28;20034;-72
2023/12/15 06:35:35;;;;;;;16.40;3.58;;;8.60;99.90;;;7.92;100.00;103122.75;4153036;28;20398;-72
2023/12/15 06:37:36;;;;;;;16.35;2.38;;;8.60;99.90;;;7.90;100.00;103129.91;4163363;28;20026;-72
2023/12/15 06:39:36;;;;;;;15.38;2.70;;;8.60;99.90;;;7.91;100.00;103131.59;4153441;28;20026;-72
2023/12/15 06:41:38;;;;;;;12.55;2.78;;;8.60;99.90;;;7.92;100.00;103142.94;4168448;28;20033;-72
2023/12/15 06:43:42;;;;;;;22.05;4.88;;;8.60;99.90;;;7.90;100.00;103139.53;4151662;28;20152;-72
2023/12/15 06:45:43;;;;;;;21.00;3.05;;;8.60;99.90;;;7.87;100.00;103134.44;4153337;28;20034;-72
2023/12/15 06:47:44;;;;;;;15.80;3.65;;;8.60;99.90;;;7.84;100.00;103140.72;4168351;28;20025;-72
2023/12/15 06:49:45;;;;;;;14.75;3.85;;;8.60;99.90;;;7.91;100.00;103157.03;4152856;28;20053;-72
2023/12/15 06:51:46;;;;;;;17.50;3.10;;;8.60;99.90;;;7.93;100.00;103157.78;4183038;28;20044;-72
2023/12/15 06:53:47;;;;;;;14.88;4.07;;;8.60;99.90;;;7.93;100.00;103171.78;4153198;28;20026;-72
2023/12/15 06:55:48;;;;;;;14.30;3.65;;;8.60;99.90;;;7.93;100.00;103158.63;4153919;28;20036;-72
2023/12/15 06:57:48;;;;;;;10.38;2.38;;;8.60;99.90;;;7.91;100.00;103159.66;4151732;28;20113;-72
2023/12/15 06:59:49;;;;;;;11.43;2.55;;;8.60;99.90;;;7.94;100.00;103167.38;4151819;28;20501;-72
2023/12/15 07:01:50;;;;;;;17.38;2.83;;;8.50;99.90;;;7.89;100.00;103158.88;4151342;28;20057;-72
2023/12/15 07:03:51;;;;;;;12.95;2.60;;;8.60;99.90;;;7.84;100.00;103161.75;4151871;28;20018;-72
2023/12/15 07:05:52;;;;;;;13.32;3.03;;;8.50;99.90;;;7.85;100.00;103159.97;4151718;28;20026;-72
2023/12/15 07:07:53;;;;;;;17.30;2.65;;;8.50;99.90;;;7.88;100.00;103172.94;4184651;28;20025;-72
2023/12/15 07:09:54;;;;;;;11.65;2.75;;;8.50;99.90;;;7.83;100.00;103170.53;4151770;28;20034;-72
2023/12/15 07:11:57;;;;;;;12.02;3.10;;;8.50;99.90;;;7.84;100.00;103174.03;4175785;28;20035;-72
2023/12/15 07:13:58;;;;;;;13.47;2.77;;;8.50;99.90;;;7.82;100.00;103180.19;4167964;28;20025;-72
2023/12/15 07:15:59;;;;;;;10.65;3.35;;;8.40;99.90;;;7.78;100.00;103177.81;4152576;28;20044;-72
2023/12/15 07:18:00;;;;;;;14.65;2.53;;;8.40;99.90;;;7.75;100.00;103181.47;4151779;28;20042;-72
2023/12/15 07:20:00;;;;;;;16.02;2.65;;;8.40;99.90;;;7.78;100.00;103194.44;4142399;28;20125;-72
2023/12/15 07:22:01;;;;;;;11.88;2.85;;;8.40;99.90;;;7.74;100.00;103186.78;4167301;28;20527;-72
2023/12/15 07:24:02;;;;;;;10.38;2.42;;;8.40;99.90;;;7.72;100.00;103186.88;4167767;28;20045;-72
2023/12/15 07:26:04;;;;;;;18.05;2.88;;;8.40;99.90;;;7.71;100.00;103193.03;4184561;28;20027;-72
2023/12/15 07:28:05;;;;;;;13.20;2.80;;;8.40;99.90;;;7.73;100.00;103195.59;4184099;28;20056;-72
2023/12/15 07:30:07;;;;;;;13.90;2.85;;;8.40;99.90;;;7.72;100.00;103194.75;4168928;28;20022;-71
2023/12/15 07:32:08;;;;;;;12.55;2.80;;;8.40;99.90;;;7.76;100.00;103201.53;4151359;28;20513;-72
2023/12/15 07:34:09;;;;;;;13.07;2.72;;;8.40;99.90;;;7.74;100.00;103198.13;4168525;28;20025;-72
2023/12/15 07:36:10;;;;;;;10.38;3.70;;;8.40;99.90;;;7.76;100.00;103201.53;4151243;28;20030;-72
2023/12/15 07:38:11;;;;;;;14.45;3.63;;;8.40;99.90;;;7.79;100.00;103211.88;4168886;28;20033;-72
2023/12/15 07:40:12;;;;;;;10.82;3.15;;;8.40;99.90;;;7.78;100.00;103204.94;4167566;28;20091;-71
2023/12/15 07:42:13;;;;;;;18.30;3.92;;;8.40;99.90;;;7.79;100.00;103197.94;4167569;28;20029;-72
2023/12/15 07:44:15;;;;;;;12.20;3.40;;;8.40;99.90;;;7.79;100.00;103201.38;4167643;28;20034;-71
2023/12/15 07:46:18;;;;;;;26.45;7.82;;;8.50;99.90;;;7.77;100.00;103208.50;4167660;28;20068;-72
2023/12/15 07:48:19;;;;;;;28.30;7.85;;;8.40;99.90;;;7.74;100.00;103207.78;4167483;28;20025;-72
2023/12/15 07:50:21;;;;;;;32.33;13.15;;;8.40;99.90;;;7.77;100.00;103219.00;4168773;28;20022;-72
2023/12/15 07:52:21;;;;;;;16.02;5.78;;;8.40;99.90;;;7.73;100.00;103206.97;4168738;28;20025;-72
2023/12/15 07:54:22;;;;;;;14.52;5.85;;;8.40;99.90;;;7.66;100.00;103215.22;4168756;28;20029;-72
2023/12/15 07:56:25;;;;;;;13.65;4.22;;;8.40;99.90;;;7.66;100.00;103223.97;4167419;28;20079;-72
2023/12/15 07:58:26;;;;;;;23.52;9.40;;;8.30;99.90;;;7.60;100.00;103228.66;4167381;28;20037;-72
2023/12/15 08:00:27;;;;;;;26.27;7.05;;;8.30;99.90;;;7.55;100.00;103235.94;4167601;28;20033;-72
2023/12/15 08:02:28;;;;;;;14.60;4.20;;;8.20;99.90;;;7.56;100.00;103238.47;4168824;28;20023;-72
2023/12/15 08:04:28;;;;;;;21.67;7.15;;;8.20;99.90;;;7.58;100.00;103248.91;4168527;28;20056;-72
2023/12/15 08:06:29;;;;;;;20.85;5.88;;;8.20;99.90;;;7.56;100.00;103243.72;4167354;28;20036;-72
2023/12/15 08:08:30;;;;;;;16.52;5.20;;;8.20;99.90;;;7.62;100.00;103255.69;4168687;28;20028;-72
2023/12/15 08:10:31;;;;;;;14.38;4.65;;;8.20;99.90;;;7.63;100.00;103258.25;4163250;28;20029;-72
2023/12/15 08:12:32;;;;;;;21.50;3.85;;;8.20;99.90;;;7.65;100.00;103256.41;4196051;28;20031;-72
2023/12/15 08:14:33;;;;;;;16.60;4.57;;;8.30;99.90;;;7.70;100.00;103259.66;4152143;28;20088;-72
2023/12/15 08:16:34;;;;;;;17.77;4.68;;;8.30;99.90;;;7.71;100.00;103255.25;4171972;28;20091;-72
2023/12/15 08:18:35;;;;;;;13.57;4.90;;;8.40;99.90;;;7.67;100.00;103256.34;4170821;28;20025;-72
2023/12/15 08:20:36;;;;;;;24.75;6.47;;;8.30;99.90;;;7.71;100.00;103265.75;4176771;28;20037;-72
2023/12/15 08:22:36;;;;;;;23.13;6.20;;;8.40;99.90;;;7.73;100.00;103267.41;4171742;28;20029;-72
2023/12/15 08:24:37;;;;;;;28.77;11.82;;;8.40;99.90;;;7.78;100.00;103268.00;4170604;28;20041;-72